Terminal Aerodrome Forecast
Issued by NWS

Home | Current Version | Previous Version | Text Only | Print | Product List | Glossary On
Versions: 1 2 3 4 5 6 7 8 9 10 11 12 13 14 15 16 17 18
000
FTUS43 KEAX 250520
TAFSTJ
TAF
KSTJ 250520Z 2506/2606 15008KT 6SM SHRA VCTS BKN035CB
      TEMPO 2506/2509 VRB25G35KT 3SM TSRA BKN025CB
     FM251400 16011KT P6SM -SHRA VCTS BKN010CB
     FM251900 18011KT P6SM VCSH BKN035=

USA.gov is the U.S. government's official web portal to all federal, state and local government web resources and services.